Time,TemperatureF,DewpointF,PressureIn,WindDirection,WindDirectionDegrees,WindSpeedMPH,WindSpeedGustMPH,Humidity,HourlyPrecipIn,Conditions,Clouds,dailyrainin,SoftwareType,DateUTC
2013-10-17 00:03:00,69.1,64.4,30.04,East,100,0.2,2.0,85,-99.99,,,-99.99,PyWeather,2013-10-16 22:03:00,
2013-10-17 00:13:00,68.9,64.2,30.04,ESE,122,-999.0,0.9,85,-99.99,,,-99.99,PyWeather,2013-10-16 22:13:00,
2013-10-17 00:23:00,68.5,64.2,30.04,East,90,-999.0,-999.0,86,-99.99,,,-99.99,PyWeather,2013-10-16 22:23:00,
2013-10-17 00:32:00,68.5,64.2,30.04,East,90,-999.0,-999.0,86,-99.99,,,-99.99,PyWeather,2013-10-16 22:32:00,
2013-10-17 00:42:00,68.4,63.7,30.04,ESE,115,0.9,2.0,85,-99.99,,,-99.99,PyWeather,2013-10-16 22:42:00,
2013-10-17 00:52:00,68.0,64.0,30.04,East,90,-999.0,-999.0,87,-99.99,,,-99.99,PyWeather,2013-10-16 22:52:00,
2013-10-17 01:02:00,68.2,64.2,30.04,East,90,-999.0,-999.0,87,-99.99,,,-99.99,PyWeather,2013-10-16 23:02:00,
2013-10-17 01:12:00,68.0,64.0,30.04,ESE,119,-999.0,0.9,87,-99.99,,,-99.99,PyWeather,2013-10-16 23:12:00,
2013-10-17 01:21:00,67.8,63.9,30.04,ESE,115,0.2,0.9,87,-99.99,,,-99.99,PyWeather,2013-10-16 23:21:00,
2013-10-17 01:31:00,67.6,63.7,30.03,ESE,116,0.7,2.0,87,-99.99,,,-99.99,PyWeather,2013-10-16 23:31:00,
2013-10-17 01:41:00,66.9,63.0,30.03,SSW,208,1.1,2.9,87,-99.99,,,-99.99,PyWeather,2013-10-16 23:41:00,
2013-10-17 01:51:00,66.2,62.6,30.03,WSW,251,1.3,2.9,88,-99.99,,,-99.99,PyWeather,2013-10-16 23:51:00,
2013-10-17 02:01:00,66.0,62.6,30.03,West,259,2.7,4.0,89,-99.99,,,-99.99,PyWeather,2013-10-17 00:01:00,
2013-10-17 02:10:00,65.8,62.4,30.03,West,267,1.8,2.9,89,-99.99,,,-99.99,PyWeather,2013-10-17 00:10:00,
2013-10-17 02:20:00,65.8,62.8,30.03,WSW,253,-999.0,0.9,90,-99.99,,,-99.99,PyWeather,2013-10-17 00:20:00,
2013-10-17 02:30:00,66.2,63.1,30.04,West,278,-999.0,0.9,90,-99.99,,,-99.99,PyWeather,2013-10-17 00:30:00,
2013-10-17 02:40:00,66.2,63.1,30.04,WNW,283,0.4,0.9,90,-99.99,,,-99.99,PyWeather,2013-10-17 00:40:00,
2013-10-17 02:50:00,66.6,63.5,30.04,WNW,282,1.3,2.9,90,-99.99,,,-99.99,PyWeather,2013-10-17 00:50:00,
2013-10-17 02:59:00,66.2,63.1,30.04,WNW,287,0.7,2.0,90,-99.99,,,-99.99,PyWeather,2013-10-17 00:59:00,
2013-10-17 03:09:00,66.0,63.3,30.04,West,272,0.2,0.9,91,-99.99,,,-99.99,PyWeather,2013-10-17 01:09:00,
2013-10-17 03:19:00,66.2,63.5,30.04,West,275,0.7,2.9,91,-99.99,,,-99.99,PyWeather,2013-10-17 01:19:00,
2013-10-17 03:29:00,65.8,63.1,30.03,West,275,1.3,2.9,91,-99.99,,,-99.99,PyWeather,2013-10-17 01:29:00,
2013-10-17 03:38:00,65.8,63.1,30.04,WNW,286,0.2,2.0,91,-99.99,,,-99.99,PyWeather,2013-10-17 01:38:00,
2013-10-17 03:48:00,65.5,62.8,30.03,West,278,0.2,2.0,91,-99.99,,,-99.99,PyWeather,2013-10-17 01:48:00,
2013-10-17 03:58:00,65.7,63.3,30.04,WNW,284,1.3,2.9,92,-99.99,,,-99.99,PyWeather,2013-10-17 01:58:00,
2013-10-17 04:08:00,65.5,63.1,30.04,WNW,295,0.9,2.0,92,-99.99,,,-99.99,PyWeather,2013-10-17 02:08:00,
2013-10-17 04:18:00,65.1,62.8,30.04,West,279,0.9,2.9,92,-99.99,,,-99.99,PyWeather,2013-10-17 02:18:00,
2013-10-17 04:27:00,64.9,62.8,30.03,East,90,-999.0,-999.0,93,-99.99,,,-99.99,PyWeather,2013-10-17 02:27:00,
2013-10-17 04:37:00,65.1,63.0,30.03,NW,306,-999.0,0.9,93,-99.99,,,-99.99,PyWeather,2013-10-17 02:37:00,
2013-10-17 04:47:00,64.6,61.9,30.03,WNW,289,0.2,0.9,91,-99.99,,,-99.99,PyWeather,2013-10-17 02:47:00,
2013-10-17 04:57:00,63.0,60.3,30.03,East,90,-999.0,-999.0,91,-99.99,,,-99.99,PyWeather,2013-10-17 02:57:00,
2013-10-17 05:07:00,62.8,60.8,30.03,East,90,-999.0,-999.0,93,-99.99,,,-99.99,PyWeather,2013-10-17 03:07:00,
2013-10-17 05:16:00,63.3,61.3,30.03,East,90,-999.0,-999.0,93,-99.99,,,-99.99,PyWeather,2013-10-17 03:16:00,
2013-10-17 05:26:00,64.2,62.2,30.04,West,280,1.8,2.9,93,-99.99,,,-99.99,PyWeather,2013-10-17 03:26:00,
2013-10-17 05:36:00,64.2,61.9,30.04,NW,309,1.1,2.9,92,-99.99,,,-99.99,PyWeather,2013-10-17 03:36:00,
2013-10-17 05:46:00,64.0,62.1,30.04,East,90,-999.0,-999.0,93,-99.99,,,-99.99,PyWeather,2013-10-17 03:46:00,
2013-10-17 05:56:00,64.0,62.1,30.04,WNW,286,0.7,2.0,93,-99.99,,,-99.99,PyWeather,2013-10-17 03:56:00,
2013-10-17 06:05:00,64.2,62.2,30.04,West,261,-999.0,0.9,93,-99.99,,,-99.99,PyWeather,2013-10-17 04:05:00,
2013-10-17 06:15:00,64.4,62.6,30.04,West,269,0.2,2.0,94,-99.99,,,-99.99,PyWeather,2013-10-17 04:15:00,
2013-10-17 06:25:00,64.2,62.2,30.04,WSW,254,-999.0,0.9,93,-99.99,,,-99.99,PyWeather,2013-10-17 04:25:00,
2013-10-17 06:30:00,63.9,61.9,30.04,West,278,0.4,2.0,93,-99.99,,,-99.99,PyWeather,2013-10-17 04:30:00,
2013-10-17 06:40:00,64.6,62.8,30.04,West,274,0.9,2.0,94,-99.99,,,-99.99,PyWeather,2013-10-17 04:40:00,
2013-10-17 06:49:00,63.7,61.7,30.04,East,90,-999.0,-999.0,93,-99.99,,,-99.99,PyWeather,2013-10-17 04:49:00,
2013-10-17 06:59:00,63.3,61.5,30.04,West,259,0.2,0.9,94,-99.99,,,-99.99,PyWeather,2013-10-17 04:59:00,
2013-10-17 07:09:00,62.4,60.4,30.05,WSW,253,-999.0,0.9,93,-99.99,,,-99.99,PyWeather,2013-10-17 05:09:00,
2013-10-17 07:19:00,61.2,59.2,30.05,East,90,-999.0,-999.0,93,-99.99,,,-99.99,PyWeather,2013-10-17 05:19:00,
2013-10-17 07:29:00,61.3,59.5,30.05,East,90,-999.0,-999.0,94,-99.99,,,-99.99,PyWeather,2013-10-17 05:29:00,
2013-10-17 07:38:00,61.9,60.1,30.05,NW,315,0.2,0.9,94,-99.99,,,-99.99,PyWeather,2013-10-17 05:38:00,
2013-10-17 07:48:00,63.0,61.2,30.05,WNW,282,0.7,2.9,94,-99.99,,,-99.99,PyWeather,2013-10-17 05:48:00,
2013-10-17 07:58:00,62.8,61.0,30.05,West,274,0.4,2.0,94,-99.99,,,-99.99,PyWeather,2013-10-17 05:58:00,
2013-10-17 08:08:00,63.1,61.3,30.05,WNW,287,0.7,2.9,94,-99.99,,,-99.99,PyWeather,2013-10-17 06:08:00,
2013-10-17 08:18:00,63.5,61.7,30.05,West,280,1.6,2.9,94,-99.99,,,-99.99,PyWeather,2013-10-17 06:18:00,
2013-10-17 08:27:00,63.7,62.2,30.05,WNW,286,1.3,2.0,95,-99.99,,,-99.99,PyWeather,2013-10-17 06:27:00,
2013-10-17 08:37:00,63.1,61.3,30.06,WNW,300,0.9,2.9,94,-99.99,,,-99.99,PyWeather,2013-10-17 06:37:00,
2013-10-17 08:47:00,63.0,61.5,30.06,NW,306,0.9,2.0,95,-99.99,,,-99.99,PyWeather,2013-10-17 06:47:00,
2013-10-17 08:57:00,63.7,62.2,30.06,WNW,303,0.2,0.9,95,-99.99,,,-99.99,PyWeather,2013-10-17 06:57:00,
2013-10-17 09:06:00,64.2,62.8,30.06,WNW,301,0.9,2.0,95,-99.99,,,-99.99,PyWeather,2013-10-17 07:06:00,
2013-10-17 09:16:00,64.6,63.1,30.06,WNW,295,0.9,2.0,95,-99.99,,,-99.99,PyWeather,2013-10-17 07:16:00,
2013-10-17 09:26:00,64.9,63.5,30.07,WNW,298,1.6,2.9,95,-99.99,,,-99.99,PyWeather,2013-10-17 07:26:00,
2013-10-17 09:36:00,65.1,63.7,30.07,WNW,298,0.4,2.0,95,-99.99,,,-99.99,PyWeather,2013-10-17 07:36:00,
2013-10-17 09:46:00,65.8,64.4,30.07,West,276,-999.0,0.9,95,-99.99,,,-99.99,PyWeather,2013-10-17 07:46:00,
2013-10-17 09:55:00,66.9,65.5,30.07,East,90,-999.0,-999.0,95,-99.99,,,-99.99,PyWeather,2013-10-17 07:55:00,
2013-10-17 10:05:00,68.0,66.2,30.07,SE,127,0.9,2.9,94,-99.99,,,-99.99,PyWeather,2013-10-17 08:05:00,
2013-10-17 10:10:00,68.4,66.2,30.07,ESE,118,0.7,2.9,93,-99.99,,,-99.99,PyWeather,2013-10-17 08:10:00,
2013-10-17 10:20:00,70.0,66.9,30.08,ESE,122,1.1,2.9,90,-99.99,,,-99.99,PyWeather,2013-10-17 08:20:00,
2013-10-17 10:30:00,71.2,65.8,30.08,SE,125,2.5,4.9,83,-99.99,,,-99.99,PyWeather,2013-10-17 08:30:00,
2013-10-17 10:40:00,72.3,65.5,30.08,SE,134,3.1,7.0,79,-99.99,,,-99.99,PyWeather,2013-10-17 08:40:00,
2013-10-17 10:49:00,72.7,65.1,30.07,SE,125,3.1,8.1,77,-99.99,,,-99.99,PyWeather,2013-10-17 08:49:00,
2013-10-17 10:59:00,73.0,64.9,30.07,East,99,3.4,8.1,76,-99.99,,,-99.99,PyWeather,2013-10-17 08:59:00,
2013-10-17 11:09:00,73.8,65.3,30.07,SE,140,2.2,8.1,75,-99.99,,,-99.99,PyWeather,2013-10-17 09:09:00,
2013-10-17 11:19:00,74.1,64.9,30.07,East,87,3.8,9.0,73,-99.99,,,-99.99,PyWeather,2013-10-17 09:19:00,
2013-10-17 11:28:00,74.3,63.9,30.07,SSE,150,3.8,8.1,70,-99.99,,,-99.99,PyWeather,2013-10-17 09:28:00,
2013-10-17 11:38:00,75.2,64.8,30.07,SE,141,4.3,10.1,70,-99.99,,,-99.99,PyWeather,2013-10-17 09:38:00,
2013-10-17 11:48:00,75.2,64.4,30.07,SE,145,3.1,9.0,69,-99.99,,,-99.99,PyWeather,2013-10-17 09:48:00,
2013-10-17 11:58:00,75.6,64.2,30.07,ESE,122,4.0,9.0,68,-99.99,,,-99.99,PyWeather,2013-10-17 09:58:00,
2013-10-17 12:08:00,75.7,64.0,30.07,ESE,120,3.4,8.1,67,-99.99,,,-99.99,PyWeather,2013-10-17 10:08:00,
2013-10-17 12:17:00,75.9,64.2,30.07,SSE,165,3.4,9.0,67,-99.99,,,-99.99,PyWeather,2013-10-17 10:17:00,
2013-10-17 12:27:00,75.9,63.7,30.07,SSE,153,5.8,11.0,66,-99.99,,,-99.99,PyWeather,2013-10-17 10:27:00,
2013-10-17 12:37:00,75.9,63.7,30.07,ESE,121,6.5,11.9,66,-99.99,,,-99.99,PyWeather,2013-10-17 10:37:00,
2013-10-17 12:47:00,75.4,63.7,30.07,SE,130,3.8,8.1,67,-99.99,,,-99.99,PyWeather,2013-10-17 10:47:00,
2013-10-17 12:57:00,75.6,63.3,30.07,SE,137,4.7,9.0,66,-99.99,,,-99.99,PyWeather,2013-10-17 10:57:00,
2013-10-17 13:06:00,75.2,63.5,30.07,SE,135,5.2,9.0,67,-99.99,,,-99.99,PyWeather,2013-10-17 11:06:00,
2013-10-17 13:16:00,75.4,63.7,30.07,ESE,116,5.8,11.0,67,-99.99,,,-99.99,PyWeather,2013-10-17 11:16:00,
2013-10-17 13:26:00,75.4,64.0,30.06,ESE,112,7.0,10.1,68,-99.99,,,-99.99,PyWeather,2013-10-17 11:26:00,
2013-10-17 13:36:00,75.4,63.7,30.06,ESE,117,7.2,11.9,67,-99.99,,,-99.99,PyWeather,2013-10-17 11:36:00,
2013-10-17 13:46:00,76.1,63.9,30.06,SE,133,4.9,9.0,66,-99.99,,,-99.99,PyWeather,2013-10-17 11:46:00,
2013-10-17 13:55:00,76.6,63.1,30.05,SSE,160,5.2,11.0,63,-99.99,,,-99.99,PyWeather,2013-10-17 11:55:00,
2013-10-17 14:05:00,76.8,62.8,30.05,South,173,5.2,9.0,62,-99.99,,,-99.99,PyWeather,2013-10-17 12:05:00,
2013-10-17 14:15:00,77.0,62.6,30.05,SSE,162,5.8,13.0,61,-99.99,,,-99.99,PyWeather,2013-10-17 12:15:00,
2013-10-17 14:25:00,76.5,63.0,30.04,SSE,163,5.2,8.1,63,-99.99,,,-99.99,PyWeather,2013-10-17 12:25:00,
2013-10-17 14:35:00,77.0,63.0,30.04,SSE,159,6.3,11.0,62,-99.99,,,-99.99,PyWeather,2013-10-17 12:35:00,
2013-10-17 14:44:00,76.8,63.3,30.04,SE,146,6.5,11.0,63,-99.99,,,-99.99,PyWeather,2013-10-17 12:44:00,
2013-10-17 14:54:00,77.4,63.3,30.03,SSW,192,5.4,13.0,62,-99.99,,,-99.99,PyWeather,2013-10-17 12:54:00,
2013-10-17 15:04:00,77.5,63.5,30.03,South,173,5.8,11.0,62,-99.99,,,-99.99,PyWeather,2013-10-17 13:04:00,
2013-10-17 15:14:00,77.7,63.1,30.03,South,189,7.9,15.0,61,-99.99,,,-99.99,PyWeather,2013-10-17 13:14:00,
2013-10-17 15:23:00,77.2,63.1,30.03,South,190,6.1,13.9,62,-99.99,,,-99.99,PyWeather,2013-10-17 13:23:00,
2013-10-17 15:33:00,77.0,63.5,30.03,South,184,5.2,11.9,63,-99.99,,,-99.99,PyWeather,2013-10-17 13:33:00,
2013-10-17 15:43:00,77.0,63.0,30.03,SSW,197,5.2,11.0,62,-99.99,,,-99.99,PyWeather,2013-10-17 13:43:00,
2013-10-17 15:53:00,76.5,63.9,30.03,South,185,5.8,11.0,65,-99.99,,,-99.99,PyWeather,2013-10-17 13:53:00,
2013-10-17 16:03:00,76.5,63.9,30.02,SSE,166,5.8,11.0,65,-99.99,,,-99.99,PyWeather,2013-10-17 14:03:00,
2013-10-17 16:12:00,76.8,63.7,30.02,SSE,164,5.4,9.0,64,-99.99,,,-99.99,PyWeather,2013-10-17 14:12:00,
2013-10-17 16:22:00,76.6,64.0,30.02,South,175,5.8,11.0,65,-99.99,,,-99.99,PyWeather,2013-10-17 14:22:00,
2013-10-17 16:32:00,76.1,64.4,30.02,South,187,5.6,11.9,67,-99.99,,,-99.99,PyWeather,2013-10-17 14:32:00,
2013-10-17 16:42:00,76.3,64.6,30.02,South,178,4.7,11.9,67,-99.99,,,-99.99,PyWeather,2013-10-17 14:42:00,
2013-10-17 16:52:00,76.1,64.4,30.02,SSW,203,7.0,10.1,67,-99.99,,,-99.99,PyWeather,2013-10-17 14:52:00,
2013-10-17 17:01:00,75.7,64.4,30.01,South,190,5.8,11.9,68,-99.99,,,-99.99,PyWeather,2013-10-17 15:01:00,
2013-10-17 17:11:00,75.9,64.6,30.01,SSW,202,4.9,9.0,68,-99.99,,,-99.99,PyWeather,2013-10-17 15:11:00,
2013-10-17 17:21:00,76.5,64.2,30.01,SSW,193,6.7,11.9,66,-99.99,,,-99.99,PyWeather,2013-10-17 15:21:00,
2013-10-17 17:31:00,76.6,64.0,30.01,South,191,5.4,13.0,65,-99.99,,,-99.99,PyWeather,2013-10-17 15:31:00,
2013-10-17 17:41:00,76.3,64.0,30.01,SSW,198,5.2,11.0,66,-99.99,,,-99.99,PyWeather,2013-10-17 15:41:00,
2013-10-17 17:50:00,75.9,64.2,30.01,South,185,7.6,15.9,67,-99.99,,,-99.99,PyWeather,2013-10-17 15:50:00,
2013-10-17 18:00:00,75.7,64.4,30.01,SSW,194,3.6,7.0,68,-99.99,,,-99.99,PyWeather,2013-10-17 16:00:00,
2013-10-17 18:10:00,75.7,64.4,30.01,SSW,211,4.5,11.0,68,-99.99,,,-99.99,PyWeather,2013-10-17 16:10:00,
2013-10-17 18:20:00,75.2,64.4,30.01,SW,225,2.2,6.1,69,-99.99,,,-99.99,PyWeather,2013-10-17 16:20:00,
2013-10-17 18:30:00,75.0,64.6,30.01,South,189,4.5,9.0,70,-99.99,,,-99.99,PyWeather,2013-10-17 16:30:00,
2013-10-17 18:39:00,74.1,64.9,30.01,SSW,207,6.1,11.0,73,-99.99,,,-99.99,PyWeather,2013-10-17 16:39:00,
2013-10-17 18:54:00,73.6,65.1,30.01,South,175,3.6,7.0,75,-99.99,,,-99.99,PyWeather,2013-10-17 16:54:00,
2013-10-17 19:04:00,73.0,64.9,30.01,SSE,167,4.7,11.0,76,-99.99,,,-99.99,PyWeather,2013-10-17 17:04:00,
2013-10-17 19:14:00,72.5,64.9,30.01,South,174,4.9,8.1,77,-99.99,,,-99.99,PyWeather,2013-10-17 17:14:00,
2013-10-17 19:24:00,72.1,65.3,30.01,South,169,4.3,8.1,79,-99.99,,,-99.99,PyWeather,2013-10-17 17:24:00,
2013-10-17 19:29:00,72.0,65.5,30.01,South,171,3.6,8.1,80,-99.99,,,-99.99,PyWeather,2013-10-17 17:29:00,
2013-10-17 19:39:00,71.6,65.5,30.01,SSE,167,4.0,6.1,81,-99.99,,,-99.99,PyWeather,2013-10-17 17:39:00,
2013-10-17 19:49:00,71.4,65.3,30.01,SE,140,3.6,8.1,81,-99.99,,,-99.99,PyWeather,2013-10-17 17:49:00,
2013-10-17 19:58:00,71.2,65.5,30.01,SSE,152,3.1,7.0,82,-99.99,,,-99.99,PyWeather,2013-10-17 17:58:00,
2013-10-17 20:03:00,71.1,65.3,30.01,SSE,154,3.1,4.9,82,-99.99,,,-99.99,PyWeather,2013-10-17 18:03:00,
2013-10-17 20:13:00,70.9,65.5,30.01,SE,142,2.9,7.0,83,-99.99,,,-99.99,PyWeather,2013-10-17 18:13:00,
2013-10-17 20:23:00,70.7,65.3,30.01,SE,144,2.7,4.9,83,-99.99,,,-99.99,PyWeather,2013-10-17 18:23:00,
2013-10-17 20:33:00,70.5,65.1,30.01,SSE,159,1.3,2.9,83,-99.99,,,-99.99,PyWeather,2013-10-17 18:33:00,
2013-10-17 20:43:00,70.2,65.1,30.01,SE,144,2.2,4.0,84,-99.99,,,-99.99,PyWeather,2013-10-17 18:43:00,
2013-10-17 20:53:00,70.0,64.9,30.01,SSE,150,1.8,2.9,84,-99.99,,,-99.99,PyWeather,2013-10-17 18:53:00,
2013-10-17 21:03:00,69.6,64.9,30.01,SSE,157,1.8,4.0,85,-99.99,,,-99.99,PyWeather,2013-10-17 19:03:00,
2013-10-17 21:12:00,69.6,65.3,30.01,SSE,151,1.8,4.0,86,-99.99,,,-99.99,PyWeather,2013-10-17 19:12:00,
2013-10-17 21:22:00,69.4,65.1,30.01,SSE,147,1.8,4.0,86,-99.99,,,-99.99,PyWeather,2013-10-17 19:22:00,
2013-10-17 21:32:00,69.3,64.9,30.01,SE,143,1.3,4.0,86,-99.99,,,-99.99,PyWeather,2013-10-17 19:32:00,
2013-10-17 21:42:00,69.1,64.8,30.01,SSE,153,1.1,2.9,86,-99.99,,,-99.99,PyWeather,2013-10-17 19:42:00,
2013-10-17 21:52:00,69.1,64.8,30.01,SSE,154,0.4,2.0,86,-99.99,,,-99.99,PyWeather,2013-10-17 19:52:00,
2013-10-17 22:01:00,68.9,64.9,30.01,SSE,153,1.6,2.9,87,-99.99,,,-99.99,PyWeather,2013-10-17 20:01:00,
2013-10-17 22:11:00,68.7,64.8,30.01,SSE,156,0.7,2.0,87,-99.99,,,-99.99,PyWeather,2013-10-17 20:11:00,
2013-10-17 22:21:00,68.4,64.4,30.01,SSE,153,0.9,2.0,87,-99.99,,,-99.99,PyWeather,2013-10-17 20:21:00,
2013-10-17 22:31:00,68.2,64.4,30.01,SSE,151,0.4,2.0,88,-99.99,,,-99.99,PyWeather,2013-10-17 20:31:00,
2013-10-17 22:40:00,68.2,64.4,30.01,SSE,150,0.2,0.9,88,-99.99,,,-99.99,PyWeather,2013-10-17 20:40:00,
2013-10-17 22:50:00,68.2,64.4,30.01,SSE,160,-999.0,0.9,88,-99.99,,,-99.99,PyWeather,2013-10-17 20:50:00,
2013-10-17 23:00:00,68.0,64.4,30.01,SSE,156,0.2,0.9,88,-99.99,,,-99.99,PyWeather,2013-10-17 21:00:00,
2013-10-17 23:10:00,67.8,64.4,30.01,SSE,155,0.4,2.0,89,-99.99,,,-99.99,PyWeather,2013-10-17 21:10:00,
2013-10-17 23:20:00,67.6,64.2,30.01,SSE,148,0.4,2.0,89,-99.99,,,-99.99,PyWeather,2013-10-17 21:20:00,
2013-10-17 23:29:00,67.5,64.0,30.01,SSE,151,0.2,0.9,89,-99.99,,,-99.99,PyWeather,2013-10-17 21:29:00,
2013-10-17 23:39:00,67.3,63.9,30.01,SSE,151,0.2,0.9,89,-99.99,,,-99.99,PyWeather,2013-10-17 21:39:00,
2013-10-17 23:49:00,67.3,64.2,30.01,SSE,149,0.2,0.9,90,-99.99,,,-99.99,PyWeather,2013-10-17 21:49:00,
2013-10-17 23:59:00,67.1,64.0,30.01,SE,142,-999.0,0.9,90,-99.99,,,-99.99,PyWeather,2013-10-17 21:59:00,